Observation data for Muleshoe on 11/09/2019      Previous  Date       Current Mesonet Observations  Soil Data  Daily Summary Page  Observations in Plain Language
KMUS 090600Z 27005KT 02/01 A3029 RMK A01 T00150013  RH  100%=      5-min Rain = 0
KMUS 090605Z 27005KT 01/01 A3029 RMK A01 T00120010  RH  100%=      5-min Rain = 0
KMUS 090610Z 29006KT 01/01 A3029 RMK A01 T00080006  RH  100%=      5-min Rain = 0
KMUS 090615Z 28005KT 01/00 A3029 RMK A01 T00060004  RH  100%=      5-min Rain = 0
KMUS 090620Z 27006KT 00/00 A3029 RMK A01 T00040002  RH  100%=      5-min Rain = 0
KMUS 090625Z 26007KT 00/00 A3029 RMK A01 T00040003  RH  100%=      5-min Rain = 0
KMUS 090630Z 25007KT 01/01 A3028 RMK A01 T00060005  RH  100%=      5-min Rain = 0
KMUS 090635Z 25007KT 01/01 A3028 RMK A01 T00070005  RH  100%=      5-min Rain = 0
KMUS 090640Z 25007KT 01/01 A3028 RMK A01 T00070006  RH  100%=      5-min Rain = 0
KMUS 090645Z 25007KT 01/01 A3028 RMK A01 T00090007  RH  100%=      5-min Rain = 0
KMUS 090650Z 27006KT 01/01 A3028 RMK A01 T00100008  RH  100%=      5-min Rain = 0
KMUS 090655Z 28006KT 01/01 A3029 RMK A01 T00090008  RH  100%=      5-min Rain = 0
KMUS 090700Z 28005KT 01/01 A3029 RMK A01 T00090007  RH  100%=      5-min Rain = 0
KMUS 090705Z 27006KT 01/01 A3028 RMK A01 T00080006  RH  100%=      5-min Rain = 0
KMUS 090710Z 26007KT 01/01 A3028 RMK A01 T00070005  RH  100%=      5-min Rain = 0
KMUS 090715Z 25007KT 01/01 A3028 RMK A01 T00070005  RH  100%=      5-min Rain = 0
KMUS 090720Z 26006KT 01/01 A3028 RMK A01 T00090007  RH  100%=      5-min Rain = 0
KMUS 090725Z 26005KT 01/01 A3028 RMK A01 T00090007  RH  100%=      5-min Rain = 0
KMUS 090730Z 26006KT 01/00 A3028 RMK A01 T00060004  RH  100%=      5-min Rain = 0
KMUS 090735Z 27007KT 00/00 A3028 RMK A01 T00040003  RH  100%=      5-min Rain = 0
KMUS 090740Z 26007KT 01/00 A3028 RMK A01 T00050004  RH  100%=      5-min Rain = 0
KMUS 090745Z 26007KT 01/01 A3028 RMK A01 T00070005  RH  100%=      5-min Rain = 0
KMUS 090750Z 26007KT 01/01 A3028 RMK A01 T00070005  RH  100%=      5-min Rain = 0
KMUS 090755Z 26006KT 01/00 A3028 RMK A01 T00060004  RH  100%=      5-min Rain = 0
KMUS 090800Z 27006KT 00/00 A3027 RMK A01 T00040002  RH  100%=      5-min Rain = 0
KMUS 090805Z 26006KT 00/00 A3027 RMK A01 T00020000  RH  100%=      5-min Rain = 0
KMUS 090810Z 26006KT 00/00 A3027 RMK A01 T00020001  RH  100%=      5-min Rain = 0
KMUS 090815Z 26006KT 00/00 A3027 RMK A01 T00040003  RH  100%=      5-min Rain = 0
KMUS 090820Z 27006KT 01/00 A3027 RMK A01 T00060004  RH  100%=      5-min Rain = 0
KMUS 090825Z 27006KT 00/00 A3027 RMK A01 T00040002  RH  100%=      5-min Rain = 0
KMUS 090830Z 27005KT 00/00 A3027 RMK A01 T00030001  RH  100%=      5-min Rain = 0
KMUS 090835Z 27005KT 00/00 A3026 RMK A01 T00020001  RH  100%=      5-min Rain = 0
KMUS 090840Z 27006KT 00/00 A3026 RMK A01 T00020000  RH  100%=      5-min Rain = 0
KMUS 090845Z 26007KT 00/00 A3026 RMK A01 T00020000  RH  100%=      5-min Rain = 0
KMUS 090850Z 27006KT 00/00 A3026 RMK A01 T00030001  RH  100%=      5-min Rain = 0
KMUS 090855Z 27006KT 00/00 A3026 RMK A01 T00040002  RH  100%=      5-min Rain = 0
KMUS 090900Z 27006KT 00/00 A3026 RMK A01 T00030002  RH  100%=      5-min Rain = 0
KMUS 090905Z 27006KT 00/00 A3026 RMK A01 T00040002  RH  100%=      5-min Rain = 0
KMUS 090910Z 26007KT 00/00 A3026 RMK A01 T00040002  RH  100%=      5-min Rain = 0
KMUS 090915Z 26007KT 00/00 A3026 RMK A01 T00040003  RH  100%=      5-min Rain = 0
KMUS 090920Z 26007KT 01/00 A3025 RMK A01 T00050003  RH  100%=      5-min Rain = 0
KMUS 090925Z 26007KT 01/00 A3025 RMK A01 T00060004  RH  100%=      5-min Rain = 0
KMUS 090930Z 25008KT 01/00 A3025 RMK A01 T00060004  RH  100%=      5-min Rain = 0
KMUS 090935Z 25008KT 01/00 A3025 RMK A01 T00060004  RH  100%=      5-min Rain = 0
KMUS 090940Z 25007KT 01/01 A3025 RMK A01 T00060005  RH  100%=      5-min Rain = 0
KMUS 090945Z 25007KT 01/01 A3025 RMK A01 T00080006  RH  100%=      5-min Rain = 0
KMUS 090950Z 25007KT 01/01 A3025 RMK A01 T00090007  RH  100%=      5-min Rain = 0
KMUS 090955Z 26007KT 01/01 A3025 RMK A01 T00090007  RH  100%=      5-min Rain = 0
KMUS 091000Z 26006KT 01/01 A3025 RMK A01 T00090007  RH  100%=      5-min Rain = 0
KMUS 091005Z 27006KT 01/01 A3026 RMK A01 T00090007  RH  100%=      5-min Rain = 0
KMUS 091010Z 27006KT 01/01 A3026 RMK A01 T00060005  RH  100%=      5-min Rain = 0
KMUS 091015Z 26007KT 01/00 A3026 RMK A01 T00050004  RH  100%=      5-min Rain = 0
KMUS 091020Z 27007KT 01/00 A3026 RMK A01 T00050003  RH  100%=      5-min Rain = 0
KMUS 091025Z 27007KT 01/00 A3025 RMK A01 T00050004  RH  100%=      5-min Rain = 0
KMUS 091030Z 28006KT 01/01 A3026 RMK A01 T00070005  RH  100%=      5-min Rain = 0
KMUS 091035Z 29006KT 01/01 A3026 RMK A01 T00080006  RH  100%=      5-min Rain = 0
KMUS 091040Z 28006KT 01/01 A3026 RMK A01 T00070005  RH  100%=      5-min Rain = 0
KMUS 091045Z 28006KT 01/00 A3026 RMK A01 T00060004  RH  100%=      5-min Rain = 0
KMUS 091050Z 28006KT 01/00 A3026 RMK A01 T00050004  RH  100%=      5-min Rain = 0
KMUS 091055Z 27007KT 01/00 A3026 RMK A01 T00060004  RH  100%=      5-min Rain = 0
KMUS 091100Z 26007KT 01/01 A3026 RMK A01 T00070005  RH  100%=      5-min Rain = 0
KMUS 091105Z 27007KT 01/00 A3026 RMK A01 T00060004  RH  100%=      5-min Rain = 0
KMUS 091110Z 27007KT 01/00 A3026 RMK A01 T00050003  RH  100%=      5-min Rain = 0
KMUS 091115Z 27006KT 00/00 A3026 RMK A01 T00040002  RH  100%=      5-min Rain = 0
KMUS 091120Z 27006KT 00/00 A3026 RMK A01 T00030002  RH  100%=      5-min Rain = 0
KMUS 091125Z 26006KT 00/00 A3026 RMK A01 T00030002  RH  100%=      5-min Rain = 0
KMUS 091130Z 27007KT 00/00 A3025 RMK A01 T00030002  RH  100%=      5-min Rain = 0
KMUS 091135Z 27006KT 00/00 A3026 RMK A01 T00040002  RH  100%=      5-min Rain = 0
KMUS 091140Z 26007KT 01/00 A3025 RMK A01 T00050003  RH  100%=      5-min Rain = 0
KMUS 091145Z 25008KT 01/00 A3025 RMK A01 T00060004  RH  100%=      5-min Rain = 0
KMUS 091150Z 26008KT 01/01 A3025 RMK A01 T00070006  RH  100%=      5-min Rain = 0
KMUS 091155Z 26008KT 01/01 A3025 RMK A01 T00090007  RH  100%=      5-min Rain = 0
KMUS 091200Z 26008KT 01/01 A3025 RMK A01 T00100008  RH  100%=      5-min Rain = 0
KMUS 091205Z 26008KT 01/01 A3025 RMK A01 T00120010  RH  100%=      5-min Rain = 0
KMUS 091210Z 26009KT 01/01 A3025 RMK A01 T00140012  RH  100%=      5-min Rain = 0
KMUS 091215Z 27008KT 02/01 A3025 RMK A01 T00150013  RH  100%=      5-min Rain = 0
KMUS 091220Z 28007KT 02/01 A3025 RMK A01 T00150013  RH  100%=      5-min Rain = 0
KMUS 091225Z 27007KT 02/02 A3026 RMK A01 T00170015  RH  100%=      5-min Rain = 0
KMUS 091230Z 27008KT 02/02 A3026 RMK A01 T00190017  RH  100%=      5-min Rain = 0
KMUS 091235Z 27007KT 02/02 A3026 RMK A01 T00200018  RH  100%=      5-min Rain = 0
KMUS 091240Z 27008KT 02/02 A3026 RMK A01 T00220020  RH  100%=      5-min Rain = 0
KMUS 091245Z 27009KT 02/02 A3026 RMK A01 T00240022  RH  100%=      5-min Rain = 0
KMUS 091250Z 28009KT 03/02 A3026 RMK A01 T00270024  RH  100%=      5-min Rain = 0
KMUS 091255Z 28008KT 03/03 A3026 RMK A01 T00280026  RH  100%=      5-min Rain = 0
KMUS 091300Z 27009KT 03/03 A3026 RMK A01 T00300027  RH  100%=      5-min Rain = 0
KMUS 091305Z 27009KT 03/03 A3026 RMK A01 T00310028  RH  100%=      5-min Rain = 0
KMUS 091310Z 28010KT 03/03 A3026 RMK A01 T00320029  RH  100%=      5-min Rain = 0
KMUS 091315Z 28009KT 03/03 A3026 RMK A01 T00320030  RH  100%=      5-min Rain = 0
KMUS 091320Z 27009KT 03/03 A3026 RMK A01 T00320030  RH  100%=      5-min Rain = 0
KMUS 091325Z 27010KT 03/03 A3026 RMK A01 T00330030  RH  100%=      5-min Rain = 0
KMUS 091330Z 28011KT 03/03 A3026 RMK A01 T00330030  RH  100%=      5-min Rain = 0
KMUS 091335Z 28009KT 03/03 A3026 RMK A01 T00330031  RH  100%=      5-min Rain = 0
KMUS 091340Z 27009KT 03/03 A3026 RMK A01 T00340031  RH  100%=      5-min Rain = 0
KMUS 091345Z 28011KT 03/03 A3026 RMK A01 T00340032  RH  100%=      5-min Rain = 0
KMUS 091350Z 28011KT 04/03 A3026 RMK A01 T00350032  RH  100%=      5-min Rain = 0
KMUS 091355Z 28011KT 04/03 A3026 RMK A01 T00350033  RH  100%=      5-min Rain = 0
KMUS 091400Z 27012KT 04/03 A3026 RMK A01 T00350033  RH  100%=      5-min Rain = 0
KMUS 091405Z 27010KT 04/03 A3026 RMK A01 T00360033  RH  100%=      5-min Rain = 0
KMUS 091410Z 28009KT 03/03 A3026 RMK A01 T00340032  RH  100%=      5-min Rain = 0
KMUS 091415Z 28009KT 03/03 A3026 RMK A01 T00330031  RH  100%=      5-min Rain = 0
KMUS 091420Z 28009KT 03/03 A3026 RMK A01 T00330031  RH  100%=      5-min Rain = 0
KMUS 091425Z 28010KT 03/03 A3026 RMK A01 T00330031  RH  100%=      5-min Rain = 0
KMUS 091430Z 28009KT 03/03 A3027 RMK A01 T00340031  RH  100%=      5-min Rain = 0
KMUS 091435Z 28007KT 03/03 A3027 RMK A01 T00340032  RH  100%=      5-min Rain = 0
KMUS 091440Z 27009KT 04/03 A3027 RMK A01 T00350033  RH  100%=      5-min Rain = 0
KMUS 091445Z 27009KT 04/03 A3026 RMK A01 T00360033  RH  100%=      5-min Rain = 0
KMUS 091450Z 27009KT 04/03 A3027 RMK A01 T00360033  RH  100%=      5-min Rain = 0
KMUS 091455Z 27010KT 04/04 A3027 RMK A01 T00380035  RH  100%=      5-min Rain = 0
KMUS 091500Z 27007KT 04/04 A3027 RMK A01 T00410038  RH  100%=      5-min Rain = 0
KMUS 091505Z 27008KT 04/04 A3027 RMK A01 T00420040  RH  100%=      5-min Rain = 0
KMUS 091510Z 26010KT 04/04 A3027 RMK A01 T00420039  RH  100%=      5-min Rain = 0
KMUS 091515Z 26009KT 04/04 A3027 RMK A01 T00430040  RH  100%=      5-min Rain = 0
KMUS 091520Z 26009KT 04/04 A3027 RMK A01 T00440041  RH  100%=      5-min Rain = 0
KMUS 091525Z 27010KT 04/04 A3027 RMK A01 T00440042  RH  100%=      5-min Rain = 0
KMUS 091530Z 27009KT 05/04 A3027 RMK A01 T00470044  RH  100%=      5-min Rain = 0
KMUS 091535Z 27009KT 05/05 A3027 RMK A01 T00490046  RH  100%=      5-min Rain = 0
KMUS 091540Z 26008KT 05/05 A3027 RMK A01 T00500047  RH  100%=      5-min Rain = 0
KMUS 091545Z 27008KT 05/05 A3028 RMK A01 T00520049  RH  100%=      5-min Rain = 0
KMUS 091550Z 26009KT 05/05 A3028 RMK A01 T00530050  RH  100%=      5-min Rain = 0
KMUS 091555Z 26008KT 06/05 A3028 RMK A01 T00550052  RH  100%=      5-min Rain = 0
KMUS 091600Z 26008KT 06/05 A3028 RMK A01 T00550052  RH  100%=      5-min Rain = 0
KMUS 091605Z 27008KT 06/05 A3028 RMK A01 T00560053  RH  100%=      5-min Rain = 0
KMUS 091610Z 26008KT 06/06 A3028 RMK A01 T00580055  RH  100%=      5-min Rain = 0
KMUS 091615Z 27008KT 06/06 A3027 RMK A01 T00600057  RH  100%=      5-min Rain = 0
KMUS 091620Z 26008KT 06/06 A3027 RMK A01 T00640061  RH  100%=      5-min Rain = 0
KMUS 091625Z 28008KT 07/06 A3027 RMK A01 T00660063  RH  100%=      5-min Rain = 0
KMUS 091630Z 28007KT 07/06 A3027 RMK A01 T00670064  RH  100%=      5-min Rain = 0
KMUS 091635Z 28006KT 07/07 A3027 RMK A01 T00720068  RH  100%=      5-min Rain = 0
KMUS 091640Z 28007KT 08/07 A3027 RMK A01 T00760073  RH  100%=      5-min Rain = 0
KMUS 091645Z 27007KT 08/08 A3027 RMK A01 T00790075  RH  100%=      5-min Rain = 0
KMUS 091650Z 27006KT 08/08 A3026 RMK A01 T00830079  RH  100%=      5-min Rain = 0
KMUS 091655Z 26008KT 09/08 A3026 RMK A01 T00870082  RH  100%=      5-min Rain = 0
KMUS 091700Z 27007KT 09/09 A3026 RMK A01 T00900086  RH  100%=      5-min Rain = 0
KMUS 091705Z 27008KT 09/09 A3026 RMK A01 T00940089  RH  100%=      5-min Rain = 0
KMUS 091710Z 27008KT 10/10 A3026 RMK A01 T01010095  RH  099%=      5-min Rain = 0
KMUS 091715Z 26007KT 11/10 A3025 RMK A01 T01100095  RH  094%=      5-min Rain = 0
KMUS 091720Z 25007KT 11/09 A3025 RMK A01 T01140090  RH  088%=      5-min Rain = 0
KMUS 091725Z 26007KT 12/09 A3025 RMK A01 T01190086  RH  083%=      5-min Rain = 0
KMUS 091730Z 27006KT 13/09 A3025 RMK A01 T01270085  RH  078%=      5-min Rain = 0
KMUS 091735Z 26006KT 13/08 A3025 RMK A01 T01320084  RH  075%=      5-min Rain = 0
KMUS 091740Z 26007KT 14/08 A3025 RMK A01 T01350081  RH  072%=      5-min Rain = 0
KMUS 091745Z 26006KT 14/08 A3025 RMK A01 T01380080  RH  070%=      5-min Rain = 0
KMUS 091750Z 27007KT 14/08 A3024 RMK A01 T01420081  RH  069%=      5-min Rain = 0
KMUS 091755Z 26007KT 15/08 A3024 RMK A01 T01470081  RH  066%=      5-min Rain = 0
KMUS 091800Z 26008KT 15/08 A3024 RMK A01 T01530079  RH  063%=      5-min Rain = 0
KMUS 091805Z 26007KT 16/08 A3023 RMK A01 T01560080  RH  062%=      5-min Rain = 0
KMUS 091810Z 26007KT 16/07 A3023 RMK A01 T01600073  RH  058%=      5-min Rain = 0
KMUS 091815Z 27007KT 16/07 A3023 RMK A01 T01640069  RH  055%=      5-min Rain = 0
KMUS 091820Z 27007G12KT 17/07 A3022 RMK A01 T01690071  RH  054%=      5-min Rain = 0
KMUS 091825Z 26007KT 18/07 A3022 RMK A01 T01750069  RH  051%=      5-min Rain = 0
KMUS 091830Z 25009KT 18/06 A3022 RMK A01 T01800059  RH  046%=      5-min Rain = 0
KMUS 091835Z 25009KT 18/05 A3022 RMK A01 T01830053  RH  043%=      5-min Rain = 0
KMUS 091840Z 25009KT 19/05 A3021 RMK A01 T01880046  RH  040%=      5-min Rain = 0
KMUS 091845Z 26011KT 19/04 A3021 RMK A01 T01890035  RH  037%=      5-min Rain = 0
KMUS 091850Z 26010KT 19/03 A3021 RMK A01 T01920030  RH  035%=      5-min Rain = 0
KMUS 091855Z 26010KT 20/03 A302 RMK A01 T01960028  RH  033%=      5-min Rain = 0
KMUS 091900Z 27010KT 20/03 A302 RMK A01 T01980028  RH  033%=      5-min Rain = 0
KMUS 091905Z 27010KT 20/03 A302 RMK A01 T02010027  RH  032%=      5-min Rain = 0
KMUS 091910Z 26010KT 20/03 A3019 RMK A01 T02020028  RH  032%=      5-min Rain = 0
KMUS 091915Z 26011KT 20/03 A3019 RMK A01 T02040026  RH  031%=      5-min Rain = 0
KMUS 091920Z 26011KT 21/02 A3019 RMK A01 T02050022  RH  030%=      5-min Rain = 0
KMUS 091925Z 25011G16KT 21/02 A3018 RMK A01 T02050020  RH  030%=      5-min Rain = 0
KMUS 091930Z 26011G16KT 21/02 A3018 RMK A01 T02050017  RH  029%=      5-min Rain = 0
KMUS 091935Z 25013KT 21/01 A3017 RMK A01 T02060011  RH  028%=      5-min Rain = 0
KMUS 091940Z 25012KT 21/01 A3017 RMK A01 T02070010  RH  027%=      5-min Rain = 0
KMUS 091945Z 26012G17KT 21/01 A3017 RMK A01 T02080009  RH  027%=      5-min Rain = 0
KMUS 091950Z 25012G17KT 21/01 A3017 RMK A01 T02080011  RH  027%=      5-min Rain = 0
KMUS 091955Z 26012KT 21/01 A3017 RMK A01 T02090014  RH  028%=      5-min Rain = 0
KMUS 092000Z 25012KT 21/00 A3017 RMK A01 T02090001  RH  025%=      5-min Rain = 0
KMUS 092005Z 23012G17KT 21/M01 A3016 RMK A01 T02091005  RH  024%=      5-min Rain = 0
KMUS 092010Z 25010G16KT 21/01 A3016 RMK A01 T02110009  RH  026%=      5-min Rain = 0
KMUS 092015Z 25009G15KT 21/02 A3016 RMK A01 T02120016  RH  028%=      5-min Rain = 0
KMUS 092020Z 25010G15KT 21/02 A3015 RMK A01 T02120021  RH  029%=      5-min Rain = 0
KMUS 092025Z 25009KT 21/02 A3015 RMK A01 T02130023  RH  029%=      5-min Rain = 0
KMUS 092030Z 26009KT 21/02 A3015 RMK A01 T02120024  RH  029%=      5-min Rain = 0
KMUS 092035Z 26008G15KT 22/02 A3015 RMK A01 T02150020  RH  028%=      5-min Rain = 0
KMUS 092040Z 24011KT 22/M00 A3015 RMK A01 T02151002  RH  024%=      5-min Rain = 0
KMUS 092045Z 24010G15KT 22/M01 A3015 RMK A01 T02151008  RH  023%=      5-min Rain = 0
KMUS 092050Z 24009G14KT 22/M00 A3015 RMK A01 T02171004  RH  023%=      5-min Rain = 0
KMUS 092055Z 24010KT 22/00 A3014 RMK A01 T02170001  RH  024%=      5-min Rain = 0
KMUS 092100Z 24009G15KT 22/00 A3014 RMK A01 T02170000  RH  024%=      5-min Rain = 0
KMUS 092105Z 24010KT 22/00 A3014 RMK A01 T02190002  RH  024%=      5-min Rain = 0
KMUS 092110Z 25009KT 22/00 A3014 RMK A01 T02190002  RH  024%=      5-min Rain = 0
KMUS 092115Z 23008G13KT 22/00 A3014 RMK A01 T02180001  RH  024%=      5-min Rain = 0
KMUS 092120Z 24010KT 22/00 A3013 RMK A01 T02180000  RH  024%=      5-min Rain = 0
KMUS 092125Z 25008KT 22/M00 A3013 RMK A01 T02191001  RH  023%=      5-min Rain = 0
KMUS 092130Z 24008G14KT 22/M01 A3013 RMK A01 T02191009  RH  022%=      5-min Rain = 0
KMUS 092135Z 24011KT 22/M02 A3013 RMK A01 T02191015  RH  021%=      5-min Rain = 0
KMUS 092140Z 25011G16KT 22/M02 A3013 RMK A01 T02201015  RH  021%=      5-min Rain = 0
KMUS 092145Z 25009KT 22/M02 A3013 RMK A01 T02191016  RH  021%=      5-min Rain = 0
KMUS 092150Z 25009KT 22/M02 A3013 RMK A01 T02201016  RH  021%=      5-min Rain = 0
KMUS 092155Z 25011KT 22/M02 A3013 RMK A01 T02191015  RH  021%=      5-min Rain = 0
KMUS 092200Z 25009G14KT 22/M01 A3012 RMK A01 T02181014  RH  021%=      5-min Rain = 0
KMUS 092205Z 24008KT 22/M02 A3012 RMK A01 T02181015  RH  021%=      5-min Rain = 0
KMUS 092210Z 25010KT 22/M01 A3012 RMK A01 T02171014  RH  021%=      5-min Rain = 0
KMUS 092215Z 25009KT 22/M01 A3012 RMK A01 T02161014  RH  022%=      5-min Rain = 0
KMUS 092220Z 24010G16KT 22/M01 A3012 RMK A01 T02151014  RH  022%=      5-min Rain = 0
KMUS 092225Z 24009KT 21/M01 A3012 RMK A01 T02141014  RH  022%=      5-min Rain = 0
KMUS 092230Z 25010KT 21/M01 A3012 RMK A01 T02141014  RH  022%=      5-min Rain = 0
KMUS 092235Z 24009G14KT 21/M01 A3012 RMK A01 T02131011  RH  023%=      5-min Rain = 0
KMUS 092240Z 25010KT 21/M01 A3012 RMK A01 T02121013  RH  022%=      5-min Rain = 0
KMUS 092245Z 24010KT 21/M01 A3012 RMK A01 T02101013  RH  023%=      5-min Rain = 0
KMUS 092250Z 24008KT 21/M01 A3012 RMK A01 T02101007  RH  024%=      5-min Rain = 0
KMUS 092255Z 24009KT 21/M01 A3012 RMK A01 T02081007  RH  024%=      5-min Rain = 0
KMUS 092300Z 24009KT 20/M01 A3012 RMK A01 T02031005  RH  025%=      5-min Rain = 0
KMUS 092305Z 24008KT 20/M00 A3012 RMK A01 T01961004  RH  026%=      5-min Rain = 0
KMUS 092310Z 25007KT 19/M00 A3011 RMK A01 T01941001  RH  027%=      5-min Rain = 0
KMUS 092315Z 24007KT 19/00 A3011 RMK A01 T01900003  RH  029%=      5-min Rain = 0
KMUS 092320Z 24006KT 19/01 A3012 RMK A01 T01860006  RH  030%=      5-min Rain = 0
KMUS 092325Z 24005KT 18/01 A3011 RMK A01 T01800008  RH  032%=      5-min Rain = 0
KMUS 092330Z 23005KT 17/01 A3011 RMK A01 T01720008  RH  034%=      5-min Rain = 0
KMUS 092335Z 22005KT 16/01 A3011 RMK A01 T01640010  RH  036%=      5-min Rain = 0
KMUS 092340Z 22007KT 16/01 A3011 RMK A01 T01550013  RH  039%=      5-min Rain = 0
KMUS 092345Z 22008KT 15/01 A3011 RMK A01 T01470014  RH  041%=      5-min Rain = 0
KMUS 092350Z 23008KT 14/02 A3011 RMK A01 T01420016  RH  043%=      5-min Rain = 0
KMUS 092355Z 23008KT 14/02 A3011 RMK A01 T01400019  RH  045%=      5-min Rain = 0
KMUS 100000Z 23007KT 14/02 A3011 RMK A01 T01360021  RH  046%=      5-min Rain = 0
KMUS 100005Z 23007KT 13/02 A3011 RMK A01 T01320021  RH  047%=      5-min Rain = 0
KMUS 100010Z 24008KT 13/02 A3011 RMK A01 T01300022  RH  049%=      5-min Rain = 0
KMUS 100015Z 23008KT 13/02 A3011 RMK A01 T01270024  RH  050%=      5-min Rain = 0
KMUS 100020Z 23008KT 13/03 A3011 RMK A01 T01250025  RH  051%=      5-min Rain = 0
KMUS 100025Z 23008KT 12/03 A3011 RMK A01 T01240025  RH  051%=      5-min Rain = 0
KMUS 100030Z 23008KT 13/03 A3011 RMK A01 T01250026  RH  052%=      5-min Rain = 0
KMUS 100035Z 23008KT 12/03 A3011 RMK A01 T01230027  RH  053%=      5-min Rain = 0
KMUS 100040Z 23007KT 12/03 A3011 RMK A01 T01180028  RH  055%=      5-min Rain = 0
KMUS 100045Z 23007KT 11/03 A3011 RMK A01 T01130027  RH  056%=      5-min Rain = 0
KMUS 100050Z 23006KT 11/03 A3011 RMK A01 T01090026  RH  058%=      5-min Rain = 0
KMUS 100055Z 23005KT 10/02 A3012 RMK A01 T01020024  RH  060%=      5-min Rain = 0
KMUS 100100Z 23006KT 09/02 A3012 RMK A01 T00940024  RH  063%=      5-min Rain = 0
KMUS 100105Z 23006KT 09/03 A3012 RMK A01 T00870025  RH  066%=      5-min Rain = 0
KMUS 100110Z 23007KT 08/03 A3012 RMK A01 T00840025  RH  068%=      5-min Rain = 0
KMUS 100115Z 23008KT 08/03 A3012 RMK A01 T00840026  RH  068%=      5-min Rain = 0
KMUS 100120Z 23008KT 09/03 A3012 RMK A01 T00860027  RH  067%=      5-min Rain = 0
KMUS 100125Z 23008KT 09/03 A3012 RMK A01 T00880027  RH  067%=      5-min Rain = 0
KMUS 100130Z 23008KT 09/03 A3012 RMK A01 T00890028  RH  066%=      5-min Rain = 0
KMUS 100135Z 23007KT 09/03 A3012 RMK A01 T00920028  RH  065%=      5-min Rain = 0
KMUS 100140Z 23008KT 09/03 A3012 RMK A01 T00920027  RH  065%=      5-min Rain = 0
KMUS 100145Z 23008KT 09/03 A3012 RMK A01 T00900026  RH  066%=      5-min Rain = 0
KMUS 100150Z 23008KT 09/03 A3012 RMK A01 T00890027  RH  066%=      5-min Rain = 0
KMUS 100155Z 23007KT 09/03 A3012 RMK A01 T00880026  RH  066%=      5-min Rain = 0
KMUS 100200Z 23007KT 09/03 A3012 RMK A01 T00880026  RH  066%=      5-min Rain = 0
KMUS 100205Z 23007KT 09/03 A3012 RMK A01 T00860026  RH  067%=      5-min Rain = 0
KMUS 100210Z 23005KT 08/02 A3012 RMK A01 T00830024  RH  067%=      5-min Rain = 0
KMUS 100215Z 20005KT 08/02 A3013 RMK A01 T00770022  RH  070%=      5-min Rain = 0
KMUS 100220Z 23006KT 08/03 A3012 RMK A01 T00770025  RH  071%=      5-min Rain = 0
KMUS 100225Z 26005KT 07/02 A3012 RMK A01 T00740023  RH  071%=      5-min Rain = 0
KMUS 100230Z 25005KT 07/02 A3013 RMK A01 T00710023  RH  072%=      5-min Rain = 0
KMUS 100235Z 26005KT 07/02 A3012 RMK A01 T00670021  RH  073%=      5-min Rain = 0
KMUS 100240Z 25005KT 06/02 A3012 RMK A01 T00610019  RH  076%=      5-min Rain = 0
KMUS 100245Z 26004KT 06/02 A3012 RMK A01 T00560018  RH  078%=      5-min Rain = 0
KMUS 100250Z 27004KT 06/02 A3012 RMK A01 T00560021  RH  080%=      5-min Rain = 0
KMUS 100255Z 27004KT 05/02 A3012 RMK A01 T00540020  RH  080%=      5-min Rain = 0
KMUS 100300Z 26005KT 05/02 A3012 RMK A01 T00500018  RH  081%=      5-min Rain = 0
KMUS 100305Z 26006KT 05/02 A3012 RMK A01 T00480018  RH  083%=      5-min Rain = 0
KMUS 100310Z 25006KT 05/02 A3012 RMK A01 T00470021  RH  084%=      5-min Rain = 0
KMUS 100315Z 23006KT 05/02 A3012 RMK A01 T00480022  RH  084%=      5-min Rain = 0
KMUS 100320Z 23006KT 05/02 A3012 RMK A01 T00480021  RH  084%=      5-min Rain = 0
KMUS 100325Z 23006KT 05/02 A3011 RMK A01 T00470020  RH  084%=      5-min Rain = 0
KMUS 100330Z 23006KT 05/02 A3011 RMK A01 T00470020  RH  084%=      5-min Rain = 0
KMUS 100335Z 23006KT 05/02 A3011 RMK A01 T00460019  RH  084%=      5-min Rain = 0
KMUS 100340Z 23006KT 05/02 A3011 RMK A01 T00460020  RH  084%=      5-min Rain = 0
KMUS 100345Z 23005KT 05/02 A3011 RMK A01 T00470020  RH  084%=      5-min Rain = 0
KMUS 100350Z 23005KT 04/02 A3011 RMK A01 T00440017  RH  084%=      5-min Rain = 0
KMUS 100355Z 23005KT 04/02 A3011 RMK A01 T00410015  RH  085%=      5-min Rain = 0
KMUS 100400Z 23004KT 04/02 A3011 RMK A01 T00390015  RH  086%=      5-min Rain = 0
KMUS 100405Z 23003KT 04/01 A3011 RMK A01 T00370013  RH  086%=      5-min Rain = 0
KMUS 100410Z 23004KT 04/01 A3011 RMK A01 T00350013  RH  087%=      5-min Rain = 0
KMUS 100415Z 23006KT 03/01 A3011 RMK A01 T00340013  RH  087%=      5-min Rain = 0
KMUS 100420Z 24006KT 03/01 A3011 RMK A01 T00320012  RH  088%=      5-min Rain = 0
KMUS 100425Z 24006KT 03/02 A3011 RMK A01 T00320015  RH  090%=      5-min Rain = 0
KMUS 100430Z 24006KT 04/02 A3011 RMK A01 T00360020  RH  090%=      5-min Rain = 0
KMUS 100435Z 24006KT 04/02 A3011 RMK A01 T00370020  RH  090%=      5-min Rain = 0
KMUS 100440Z 25005KT 04/02 A3011 RMK A01 T00370019  RH  090%=      5-min Rain = 0
KMUS 100445Z 26005KT 04/02 A3011 RMK A01 T00360018  RH  090%=      5-min Rain = 0
KMUS 100450Z 26005KT 03/02 A3011 RMK A01 T00340016  RH  089%=      5-min Rain = 0
KMUS 100455Z 26003KT 03/01 A3011 RMK A01 T00310014  RH  090%=      5-min Rain = 0
KMUS 100500Z 28002KT 03/01 A3011 RMK A01 T00280011  RH  090%=      5-min Rain = 0
KMUS 100505Z 29002KT 02/01 A3011 RMK A01 T00230006  RH  090%=      5-min Rain = 0
KMUS 100510Z 26003KT 02/00 A301 RMK A01 T00190004  RH  091%=      5-min Rain = 0
KMUS 100515Z 26003KT 02/00 A301 RMK A01 T00170004  RH  092%=      5-min Rain = 0
KMUS 100520Z 27004KT 02/00 A301 RMK A01 T00150003  RH  092%=      5-min Rain = 0
KMUS 100525Z 26006KT 01/00 A301 RMK A01 T00140002  RH  093%=      5-min Rain = 0
KMUS 100530Z 25006KT 01/00 A301 RMK A01 T00140004  RH  094%=      5-min Rain = 0
KMUS 100535Z 25006KT 02/01 A301 RMK A01 T00170008  RH  095%=      5-min Rain = 0
KMUS 100540Z 25005KT 02/01 A301 RMK A01 T00190010  RH  095%=      5-min Rain = 0
KMUS 100545Z 25005KT 02/01 A301 RMK A01 T00180008  RH  094%=      5-min Rain = 0
KMUS 100550Z 25006KT 02/01 A301 RMK A01 T00170008  RH  095%=      5-min Rain = 0
KMUS 100555Z 25008KT 02/01 A301 RMK A01 T00170008  RH  095%=      5-min Rain = 0

Page generated in 0.0472 seconds.